Queen Of Burnaby — VCVV — position and weather

sailwx.info

Track history (hours):
 
Tides and Currents Weather Stations Pressure Air Temp Water Temp Dewpoint Dewpoint Depression Visibility Wind Speed Wind Dir Waves Ship Positions

Queen Of Burnaby

Last reported at 2014-Jul-23 05:08 UTC. Time now 2014-Jul-23 08:03 UTC.
Position N 49°44' W 124°55'.

Length 130 m; draft 4.1 m.

Type: Passenger vessel. MMSI: 316001246.

Date/timePositionNaut miles runAvg speedWind from/ knotsBaromVisibWave heightAir tempDewpointWater temp
2014-Jul-23 05:08N 49°44' W 124°55'5 9.5
2014-Jul-23 04:33N 49°47' W 124°48'10 9.7
2014-Jul-23 03:29N 49°50' W 124°32'1414.8
2014-Jul-23 02:34N 49°46' W 124°52'2 2.5
2014-Jul-23 01:33N 49°44' W 124°55'1211.9
2014-Jul-23 00:34N 49°49' W 124°38'4 3.8
2014-Jul-22 23:30N 49°50' W 124°33'1514.8
2014-Jul-22 22:30N 49°45' W 124°54'1 0.6
2014-Jul-22 20:33N 49°44' W 124°55'9 9.6
2014-Jul-22 19:33N 49°48' W 124°42'7 6.4
2014-Jul-22 18:30N 49°50' W 124°32'1213.1
2014-Jul-22 17:33N 49°46' W 124°50'4 3.9
2014-Jul-22 16:33N 49°44' W 124°55'1212.4
2014-Jul-22 15:33N 49°49' W 124°38'1 1.2
2014-Jul-22 14:34N 49°50' W 124°36'1313.3
2014-Jul-22 13:33N 49°44' W 124°55'0 0.1
2014-Jul-22 11:14N 49°44' W 124°55'0 0.0
2014-Jul-22 08:32N 49°44' W 124°55'0 0.0
2014-Jul-22 07:26N 49°44' W 124°55'0 0.0
2014-Jul-22 06:26N 49°44' W 124°55'0 0.0
2014-Jul-22 05:32N 49°44' W 124°55'6 5.8
2014-Jul-22 04:34N 49°47' W 124°48'1110.6
2014-Jul-22 03:33N 49°50' W 124°32'1312.8
2014-Jul-22 02:32N 49°46' W 124°51'3 3.4
2014-Jul-22 01:33N 49°44' W 124°55'1212.0
2014-Jul-22 00:34N 49°49' W 124°38'4 3.7
2014-Jul-21 23:28N 49°50' W 124°32'1314.0
2014-Jul-21 22:32N 49°46' W 124°51'3 1.3
2014-Jul-21 20:19N 49°44' W 124°55'0 2.4
2014-Jul-21 20:15N 49°44' W 124°55'1013.5
2014-Jul-21 19:29N 49°48' W 124°40'6 5.5
2014-Jul-21 18:28N 49°50' W 124°32'1213.1
2014-Jul-21 17:33N 49°46' W 124°49'4 4.2
2014-Jul-21 16:33N 49°44' W 124°55'1312.6
2014-Jul-21 15:33N 49°49' W 124°37'1 1.0
2014-Jul-21 14:34N 49°49' W 124°36'1313.2
2014-Jul-21 13:33N 49°45' W 124°55'0 0.0
2014-Jul-21 09:27N 49°44' W 124°55'0 0.0
2014-Jul-21 08:33N 49°44' W 124°55'0 0.0
2014-Jul-21 07:33N 49°44' W 124°55'0 0.0
2014-Jul-21 06:21N 49°44' W 124°55'0 0.0
2014-Jul-21 05:09N 49°44' W 124°55'5 8.2
2014-Jul-21 04:33N 49°47' W 124°49'1110.9
2014-Jul-21 03:31N 49°50' W 124°32'1212.8
2014-Jul-21 02:33N 49°46' W 124°50'4 3.9
2014-Jul-21 01:33N 49°44' W 124°55'1211.9
2014-Jul-21 00:33N 49°49' W 124°38'4 3.2
2014-Jul-20 23:24N 49°50' W 124°33'1314.9
2014-Jul-20 22:32N 49°46' W 124°52'3 1.9
2014-Jul-20 21:08N 49°44' W 124°55'0 0.0
2014-Jul-20 20:32N 49°44' W 124°55'9 8.6
2014-Jul-20 19:31N 49°48' W 124°43'7 6.1
2014-Jul-20 18:20N 49°50' W 124°33'1214.8
2014-Jul-20 17:33N 49°47' W 124°50'5 4.5
2014-Jul-20 16:33N 49°44' W 124°55'1211.4
2014-Jul-20 15:33N 49°48' W 124°39'2 2.0
2014-Jul-20 14:34N 49°49' W 124°36'1313.1
2014-Jul-20 13:32N 49°45' W 124°55'0 0.1
2014-Jul-20 12:32N 49°44' W 124°55'0 0.0
2014-Jul-20 11:26N 49°44' W 124°55'0 0.0
2014-Jul-20 10:32N 49°44' W 124°55'0 0.0
2014-Jul-20 09:32N 49°44' W 124°55'0 0.0
2014-Jul-20 08:32N 49°44' W 124°55'0 0.0
2014-Jul-20 07:32N 49°44' W 124°55'0 0.0
2014-Jul-20 05:26N 49°44' W 124°55'5 5.3
2014-Jul-20 04:33N 49°46' W 124°49'12 9.3
2014-Jul-20 03:19N 49°50' W 124°32'810.5
2014-Jul-20 02:33N 49°47' W 124°43'8 3.6
2014-Jul-20 00:14N 49°44' W 124°55'0 0.0
2014-Jul-19 23:32N 49°44' W 124°55'0 0.0
2014-Jul-19 22:33N 49°44' W 124°55'0 0.0
2014-Jul-19 21:33N 49°44' W 124°55'0 0.0
2014-Jul-19 20:33N 49°44' W 124°55'1110.7
2014-Jul-19 19:32N 49°48' W 124°40'5 5.1
2014-Jul-19 18:29N 49°50' W 124°32'1414.6
2014-Jul-19 17:33N 49°45' W 124°52'2 2.4
2014-Jul-19 16:33N 49°44' W 124°55'1211.7
2014-Jul-19 15:33N 49°49' W 124°38'2 2.1
2014-Jul-19 14:33N 49°50' W 124°36'1413.7
2014-Jul-19 13:33N 49°45' W 124°55'0 0.2
2014-Jul-19 12:26N 49°44' W 124°55'0 0.0
2014-Jul-19 11:20N 49°44' W 124°55'0 0.0
2014-Jul-19 10:32N 49°44' W 124°55'0 0.0
2014-Jul-19 09:20N 49°44' W 124°55'0 0.0
2014-Jul-19 08:26N 49°44' W 124°55'0 0.0
2014-Jul-19 07:26N 49°44' W 124°55'0 0.0
2014-Jul-19 06:32N 49°44' W 124°55'0 0.0
2014-Jul-19 05:32N 49°44' W 124°55'6 5.7
2014-Jul-19 04:33N 49°48' W 124°48'10 8.5
2014-Jul-19 03:20N 49°50' W 124°33'1215.3
2014-Jul-19 02:33N 49°46' W 124°50'4 3.7
2014-Jul-19 01:33N 49°44' W 124°55'1212.4
2014-Jul-19 00:33N 49°49' W 124°37'4 3.2
2014-Jul-18 23:27N 49°50' W 124°33'1313.9
2014-Jul-18 22:33N 49°46' W 124°51'3 2.9
2014-Jul-18 21:24N 49°44' W 124°55'0 0.0
2014-Jul-18 20:33N 49°44' W 124°55'1212.0
2014-Jul-18 19:33N 49°49' W 124°38'4 3.5
2014-Jul-18 18:25N 49°50' W 124°33'1314.6
2014-Jul-18 17:33N 49°46' W 124°51'3 2.9
2014-Jul-18 16:31N 49°44' W 124°55'1314.0
2014-Jul-18 15:33N 49°49' W 124°36'1 0.6
2014-Jul-18 14:33N 49°50' W 124°36'1313.1
2014-Jul-18 13:32N 49°44' W 124°55'0 0.0
2014-Jul-18 08:21N 49°44' W 124°55'5 1.4
2014-Jul-18 04:33N 49°46' W 124°48'1110.7
2014-Jul-18 03:31N 49°50' W 124°32'1313.1
2014-Jul-18 02:33N 49°46' W 124°50'4 3.5
2014-Jul-18 01:33N 49°44' W 124°55'1312.7
2014-Jul-18 00:33N 49°49' W 124°37'3 2.9
2014-Jul-17 23:28N 49°50' W 124°32'1314.0
2014-Jul-17 22:33N 49°45' W 124°51'3 3.1
2014-Jul-17 21:33N 49°44' W 124°55'0 0.0
2014-Jul-17 20:33N 49°44' W 124°55'1212.0
2014-Jul-17 19:33N 49°49' W 124°38'4 3.4
2014-Jul-17 18:24N 49°50' W 124°33'1214.2
2014-Jul-17 17:32N 49°46' W 124°50'3 3.2
2014-Jul-17 16:27N 49°44' W 124°55'1314.4
2014-Jul-17 15:33N 49°49' W 124°36'1 0.8
2014-Jul-17 14:33N 49°50' W 124°35'1413.7
2014-Jul-17 13:33N 49°44' W 124°55'5 0.6
2014-Jul-17 04:33N 49°46' W 124°48'1110.0
2014-Jul-17 03:28N 49°50' W 124°32'1314.0
2014-Jul-17 02:33N 49°46' W 124°51'3 3.3
2014-Jul-17 01:33N 49°44' W 124°55'1212.2
2014-Jul-17 00:33N 49°49' W 124°38'4 3.4
2014-Jul-16 23:28N 49°50' W 124°33'1313.8
2014-Jul-16 22:33N 49°45' W 124°50'3 1.5
2014-Jul-16 20:25N 49°44' W 124°55'1314.8
2014-Jul-16 19:33N 49°49' W 124°37'3 2.6
2014-Jul-16 18:27N 49°50' W 124°33'1213.1
2014-Jul-16 17:33N 49°46' W 124°50'4 4.1
2014-Jul-16 16:33N 49°44' W 124°55'1312.6
2014-Jul-16 15:33N 49°49' W 124°37'1 1.2
2014-Jul-16 14:33N 49°50' W 124°36'14 3.4
2014-Jul-16 10:32N 49°44' W 124°55'0 0.0
2014-Jul-16 09:32N 49°44' W 124°55'0 0.0
2014-Jul-16 08:08N 49°44' W 124°55'0 0.0
2014-Jul-16 07:32N 49°44' W 124°55'0 0.0
2014-Jul-16 06:05N 49°44' W 124°55'0 0.0
2014-Jul-16 05:29N 49°44' W 124°55'6 6.6
2014-Jul-16 04:33N 49°47' W 124°47'10 9.6
2014-Jul-16 03:30N 49°50' W 124°32'1415.2
2014-Jul-16 02:33N 49°45' W 124°53'2 1.6
2014-Jul-16 01:32N 49°44' W 124°55'1212.1
2014-Jul-16 00:33N 49°49' W 124°38'3 3.3
2014-Jul-15 23:29N 49°50' W 124°33'1313.4
2014-Jul-15 22:31N 49°45' W 124°52'2 1.2
2014-Jul-15 20:22N 49°44' W 124°55'1112.9
2014-Jul-15 19:31N 49°48' W 124°40'5 5.3
2014-Jul-15 18:30N 49°50' W 124°32'1212.6
2014-Jul-15 17:33N 49°46' W 124°49'4 4.1
2014-Jul-15 16:31N 49°44' W 124°55'1313.4
2014-Jul-15 15:33N 49°49' W 124°37'1 0.9
2014-Jul-15 14:33N 49°50' W 124°36'14 1.6
2014-Jul-15 06:03N 49°44' W 124°55'6 3.7
2014-Jul-15 04:33N 49°47' W 124°47'11 9.6
2014-Jul-15 03:28N 49°50' W 124°32'1213.6
2014-Jul-15 02:34N 49°46' W 124°50'1 1.5
2014-Jul-15 01:33N 49°46' W 124°52'1010.4
2014-Jul-15 00:33N 49°50' W 124°37'3 3.2
2014-Jul-14 23:33N 49°50' W 124°32'1514.9
2014-Jul-14 22:33N 49°45' W 124°54'1 1.2
2014-Jul-14 21:33N 49°44' W 124°55'0 0.0
2014-Jul-14 20:33N 49°44' W 124°55'1010.5
2014-Jul-14 19:33N 49°48' W 124°40'5 4.5
2014-Jul-14 18:22N 49°50' W 124°33'1214.5
2014-Jul-14 17:32N 49°46' W 124°50'4 3.7
2014-Jul-14 16:30N 49°44' W 124°55'1213.0
2014-Jul-14 15:33N 49°49' W 124°38'2 1.5
2014-Jul-14 14:33N 49°50' W 124°36'8 0.8
2014-Jul-14 04:33N 49°47' W 124°47'10 8.9
2014-Jul-14 03:22N 49°50' W 124°32'1214.5
2014-Jul-14 02:33N 49°46' W 124°50'4 4.2
2014-Jul-14 01:33N 49°44' W 124°55'1211.9
2014-Jul-14 00:33N 49°49' W 124°38'3 3.1
2014-Jul-13 23:27N 49°50' W 124°34'1213.0
2014-Jul-13 22:33N 49°46' W 124°50'4 1.6
2014-Jul-13 20:16N 49°44' W 124°55'1013.0
2014-Jul-13 19:28N 49°48' W 124°40'5 5.1
2014-Jul-13 18:24N 49°50' W 124°32'1314.5
2014-Jul-13 17:32N 49°46' W 124°51'3 3.3
2014-Jul-13 16:32N 49°44' W 124°55'1212.0
2014-Jul-13 15:33N 49°49' W 124°38'2 2.2
2014-Jul-13 14:33N 49°50' W 124°36'1413.7
2014-Jul-13 13:33N 49°45' W 124°55'  
Track history (hours):
 
Tides and Currents Weather Stations Pressure Air Temp Water Temp Dewpoint Dewpoint Depression Visibility Wind Speed Wind Dir Waves Ship Positions

Queen Of Burnaby

Last reported at 2014-Jul-23 05:08 UTC. Time now 2014-Jul-23 08:03 UTC.
Position N 49°44' W 124°55'.

Length 130 m; draft 4.1 m.

Type: Passenger vessel. MMSI: 316001246.

Date/timePositionNaut miles runAvg speedWind from/ knotsBaromVisibWave heightAir tempDewpointWater temp
2014-Jul-23 05:08N 49°44' W 124°55'5 9.5
2014-Jul-23 04:33N 49°47' W 124°48'10 9.7
2014-Jul-23 03:29N 49°50' W 124°32'1414.8
2014-Jul-23 02:34N 49°46' W 124°52'2 2.5
2014-Jul-23 01:33N 49°44' W 124°55'1211.9
2014-Jul-23 00:34N 49°49' W 124°38'4 3.8
2014-Jul-22 23:30N 49°50' W 124°33'1514.8
2014-Jul-22 22:30N 49°45' W 124°54'1 0.6
2014-Jul-22 20:33N 49°44' W 124°55'9 9.6
2014-Jul-22 19:33N 49°48' W 124°42'7 6.4
2014-Jul-22 18:30N 49°50' W 124°32'1213.1
2014-Jul-22 17:33N 49°46' W 124°50'4 3.9
2014-Jul-22 16:33N 49°44' W 124°55'1212.4
2014-Jul-22 15:33N 49°49' W 124°38'1 1.2
2014-Jul-22 14:34N 49°50' W 124°36'1313.3
2014-Jul-22 13:33N 49°44' W 124°55'0 0.1
2014-Jul-22 11:14N 49°44' W 124°55'0 0.0
2014-Jul-22 08:32N 49°44' W 124°55'0 0.0
2014-Jul-22 07:26N 49°44' W 124°55'0 0.0
2014-Jul-22 06:26N 49°44' W 124°55'0 0.0
2014-Jul-22 05:32N 49°44' W 124°55'6 5.8
2014-Jul-22 04:34N 49°47' W 124°48'1110.6
2014-Jul-22 03:33N 49°50' W 124°32'1312.8
2014-Jul-22 02:32N 49°46' W 124°51'3 3.4
2014-Jul-22 01:33N 49°44' W 124°55'1212.0
2014-Jul-22 00:34N 49°49' W 124°38'4 3.7
2014-Jul-21 23:28N 49°50' W 124°32'1314.0
2014-Jul-21 22:32N 49°46' W 124°51'3 1.3
2014-Jul-21 20:19N 49°44' W 124°55'0 2.4
2014-Jul-21 20:15N 49°44' W 124°55'1013.5
2014-Jul-21 19:29N 49°48' W 124°40'6 5.5
2014-Jul-21 18:28N 49°50' W 124°32'1213.1
2014-Jul-21 17:33N 49°46' W 124°49'4 4.2
2014-Jul-21 16:33N 49°44' W 124°55'1312.6
2014-Jul-21 15:33N 49°49' W 124°37'1 1.0
2014-Jul-21 14:34N 49°49' W 124°36'1313.2
2014-Jul-21 13:33N 49°45' W 124°55'0 0.0
2014-Jul-21 09:27N 49°44' W 124°55'0 0.0
2014-Jul-21 08:33N 49°44' W 124°55'0 0.0
2014-Jul-21 07:33N 49°44' W 124°55'0 0.0
2014-Jul-21 06:21N 49°44' W 124°55'0 0.0
2014-Jul-21 05:09N 49°44' W 124°55'5 8.2
2014-Jul-21 04:33N 49°47' W 124°49'1110.9
2014-Jul-21 03:31N 49°50' W 124°32'1212.8
2014-Jul-21 02:33N 49°46' W 124°50'4 3.9
2014-Jul-21 01:33N 49°44' W 124°55'1211.9
2014-Jul-21 00:33N 49°49' W 124°38'4 3.2
2014-Jul-20 23:24N 49°50' W 124°33'1314.9
2014-Jul-20 22:32N 49°46' W 124°52'3 1.9
2014-Jul-20 21:08N 49°44' W 124°55'0 0.0
2014-Jul-20 20:32N 49°44' W 124°55'9 8.6
2014-Jul-20 19:31N 49°48' W 124°43'7 6.1
2014-Jul-20 18:20N 49°50' W 124°33'1214.8
2014-Jul-20 17:33N 49°47' W 124°50'5 4.5
2014-Jul-20 16:33N 49°44' W 124°55'1211.4
2014-Jul-20 15:33N 49°48' W 124°39'2 2.0
2014-Jul-20 14:34N 49°49' W 124°36'1313.1
2014-Jul-20 13:32N 49°45' W 124°55'0 0.1
2014-Jul-20 12:32N 49°44' W 124°55'0 0.0
2014-Jul-20 11:26N 49°44' W 124°55'0 0.0
2014-Jul-20 10:32N 49°44' W 124°55'0 0.0
2014-Jul-20 09:32N 49°44' W 124°55'0 0.0
2014-Jul-20 08:32N 49°44' W 124°55'0 0.0
2014-Jul-20 07:32N 49°44' W 124°55'0 0.0
2014-Jul-20 05:26N 49°44' W 124°55'5 5.3
2014-Jul-20 04:33N 49°46' W 124°49'12 9.3
2014-Jul-20 03:19N 49°50' W 124°32'810.5
2014-Jul-20 02:33N 49°47' W 124°43'8 3.6
2014-Jul-20 00:14N 49°44' W 124°55'0 0.0
2014-Jul-19 23:32N 49°44' W 124°55'0 0.0
2014-Jul-19 22:33N 49°44' W 124°55'0 0.0
2014-Jul-19 21:33N 49°44' W 124°55'0 0.0
2014-Jul-19 20:33N 49°44' W 124°55'1110.7
2014-Jul-19 19:32N 49°48' W 124°40'5 5.1
2014-Jul-19 18:29N 49°50' W 124°32'1414.6
2014-Jul-19 17:33N 49°45' W 124°52'2 2.4
2014-Jul-19 16:33N 49°44' W 124°55'1211.7
2014-Jul-19 15:33N 49°49' W 124°38'2 2.1
2014-Jul-19 14:33N 49°50' W 124°36'1413.7
2014-Jul-19 13:33N 49°45' W 124°55'0 0.2
2014-Jul-19 12:26N 49°44' W 124°55'0 0.0
2014-Jul-19 11:20N 49°44' W 124°55'0 0.0
2014-Jul-19 10:32N 49°44' W 124°55'0 0.0
2014-Jul-19 09:20N 49°44' W 124°55'0 0.0
2014-Jul-19 08:26N 49°44' W 124°55'0 0.0
2014-Jul-19 07:26N 49°44' W 124°55'0 0.0
2014-Jul-19 06:32N 49°44' W 124°55'0 0.0
2014-Jul-19 05:32N 49°44' W 124°55'6 5.7
2014-Jul-19 04:33N 49°48' W 124°48'10 8.5
2014-Jul-19 03:20N 49°50' W 124°33'1215.3
2014-Jul-19 02:33N 49°46' W 124°50'4 3.7
2014-Jul-19 01:33N 49°44' W 124°55'1212.4
2014-Jul-19 00:33N 49°49' W 124°37'4 3.2
2014-Jul-18 23:27N 49°50' W 124°33'1313.9
2014-Jul-18 22:33N 49°46' W 124°51'3 2.9
2014-Jul-18 21:24N 49°44' W 124°55'0 0.0
2014-Jul-18 20:33N 49°44' W 124°55'1212.0
2014-Jul-18 19:33N 49°49' W 124°38'4 3.5
2014-Jul-18 18:25N 49°50' W 124°33'1314.6
2014-Jul-18 17:33N 49°46' W 124°51'3 2.9
2014-Jul-18 16:31N 49°44' W 124°55'1314.0
2014-Jul-18 15:33N 49°49' W 124°36'1 0.6
2014-Jul-18 14:33N 49°50' W 124°36'1313.1
2014-Jul-18 13:32N 49°44' W 124°55'0 0.0
2014-Jul-18 08:21N 49°44' W 124°55'5 1.4
2014-Jul-18 04:33N 49°46' W 124°48'1110.7
2014-Jul-18 03:31N 49°50' W 124°32'1313.1
2014-Jul-18 02:33N 49°46' W 124°50'4 3.5
2014-Jul-18 01:33N 49°44' W 124°55'1312.7
2014-Jul-18 00:33N 49°49' W 124°37'3 2.9
2014-Jul-17 23:28N 49°50' W 124°32'1314.0
2014-Jul-17 22:33N 49°45' W 124°51'3 3.1
2014-Jul-17 21:33N 49°44' W 124°55'0 0.0
2014-Jul-17 20:33N 49°44' W 124°55'1212.0
2014-Jul-17 19:33N 49°49' W 124°38'4 3.4
2014-Jul-17 18:24N 49°50' W 124°33'1214.2
2014-Jul-17 17:32N 49°46' W 124°50'3 3.2
2014-Jul-17 16:27N 49°44' W 124°55'1314.4
2014-Jul-17 15:33N 49°49' W 124°36'1 0.8
2014-Jul-17 14:33N 49°50' W 124°35'1413.7
2014-Jul-17 13:33N 49°44' W 124°55'5 0.6
2014-Jul-17 04:33N 49°46' W 124°48'1110.0
2014-Jul-17 03:28N 49°50' W 124°32'1314.0
2014-Jul-17 02:33N 49°46' W 124°51'3 3.3
2014-Jul-17 01:33N 49°44' W 124°55'1212.2
2014-Jul-17 00:33N 49°49' W 124°38'4 3.4
2014-Jul-16 23:28N 49°50' W 124°33'1313.8
2014-Jul-16 22:33N 49°45' W 124°50'3 1.5
2014-Jul-16 20:25N 49°44' W 124°55'1314.8
2014-Jul-16 19:33N 49°49' W 124°37'3 2.6
2014-Jul-16 18:27N 49°50' W 124°33'1213.1
2014-Jul-16 17:33N 49°46' W 124°50'4 4.1
2014-Jul-16 16:33N 49°44' W 124°55'1312.6
2014-Jul-16 15:33N 49°49' W 124°37'1 1.2
2014-Jul-16 14:33N 49°50' W 124°36'14 3.4
2014-Jul-16 10:32N 49°44' W 124°55'0 0.0
2014-Jul-16 09:32N 49°44' W 124°55'0 0.0
2014-Jul-16 08:08N 49°44' W 124°55'0 0.0
2014-Jul-16 07:32N 49°44' W 124°55'0 0.0
2014-Jul-16 06:05N 49°44' W 124°55'0 0.0
2014-Jul-16 05:29N 49°44' W 124°55'6 6.6
2014-Jul-16 04:33N 49°47' W 124°47'10 9.6
2014-Jul-16 03:30N 49°50' W 124°32'1415.2
2014-Jul-16 02:33N 49°45' W 124°53'2 1.6
2014-Jul-16 01:32N 49°44' W 124°55'1212.1
2014-Jul-16 00:33N 49°49' W 124°38'3 3.3
2014-Jul-15 23:29N 49°50' W 124°33'1313.4
2014-Jul-15 22:31N 49°45' W 124°52'2 1.2
2014-Jul-15 20:22N 49°44' W 124°55'1112.9
2014-Jul-15 19:31N 49°48' W 124°40'5 5.3
2014-Jul-15 18:30N 49°50' W 124°32'1212.6
2014-Jul-15 17:33N 49°46' W 124°49'4 4.1
2014-Jul-15 16:31N 49°44' W 124°55'1313.4
2014-Jul-15 15:33N 49°49' W 124°37'1 0.9
2014-Jul-15 14:33N 49°50' W 124°36'14 1.6
2014-Jul-15 06:03N 49°44' W 124°55'6 3.7
2014-Jul-15 04:33N 49°47' W 124°47'11 9.6
2014-Jul-15 03:28N 49°50' W 124°32'1213.6
2014-Jul-15 02:34N 49°46' W 124°50'1 1.5
2014-Jul-15 01:33N 49°46' W 124°52'1010.4
2014-Jul-15 00:33N 49°50' W 124°37'3 3.2
2014-Jul-14 23:33N 49°50' W 124°32'1514.9
2014-Jul-14 22:33N 49°45' W 124°54'1 1.2
2014-Jul-14 21:33N 49°44' W 124°55'0 0.0
2014-Jul-14 20:33N 49°44' W 124°55'1010.5
2014-Jul-14 19:33N 49°48' W 124°40'5 4.5
2014-Jul-14 18:22N 49°50' W 124°33'1214.5
2014-Jul-14 17:32N 49°46' W 124°50'4 3.7
2014-Jul-14 16:30N 49°44' W 124°55'1213.0
2014-Jul-14 15:33N 49°49' W 124°38'2 1.5
2014-Jul-14 14:33N 49°50' W 124°36'8 0.8
2014-Jul-14 04:33N 49°47' W 124°47'10 8.9
2014-Jul-14 03:22N 49°50' W 124°32'1214.5
2014-Jul-14 02:33N 49°46' W 124°50'4 4.2
2014-Jul-14 01:33N 49°44' W 124°55'1211.9
2014-Jul-14 00:33N 49°49' W 124°38'3 3.1
2014-Jul-13 23:27N 49°50' W 124°34'1213.0
2014-Jul-13 22:33N 49°46' W 124°50'4 1.6
2014-Jul-13 20:16N 49°44' W 124°55'1013.0
2014-Jul-13 19:28N 49°48' W 124°40'5 5.1
2014-Jul-13 18:24N 49°50' W 124°32'1314.5
2014-Jul-13 17:32N 49°46' W 124°51'3 3.3
2014-Jul-13 16:32N 49°44' W 124°55'1212.0
2014-Jul-13 15:33N 49°49' W 124°38'2 2.2
2014-Jul-13 14:33N 49°50' W 124°36'1413.7
2014-Jul-13 13:33N 49°45' W 124°55'  

Dump ship's entire track history